Terminal Aerodrome Forecast
Issued by NWS Newport/Morehead City, NC

Home | Current Version | Previous Version | Graphics & Text | Print | Product List | Glossary On
Versions: 1 2 3 4 5 6 7 8 9 10 11 12 13 14 15 16 17 18 19 20 21 22
880
FTUS42 KMHX 292343
TAFEWN
TAF
KEWN 292343Z 3000/3024 04005KT P6SM SCT025 BKN070
     FM300800 02003KT 5SM BR OVC005
     FM301200 04007KT P6SM BKN007
     FM301500 04009KT P6SM BKN035
     FM301800 05009KT P6SM VCSH BKN050=

USA.gov is the U.S. government's official web portal to all federal, state and local government web resources and services.